Fujishiro Maru — JD2313 — position and weather

sailwx.info

Track history (hours):
 
Tides and Currents Weather Stations Pressure Air Temp Water Temp Dewpoint Dewpoint Depression Visibility Wind Speed Wind Dir Waves Ship Positions

Fujishiro Maru

Last reported at 2018-Jul-23 09:05 UTC. Time now 2018-Jul-23 15:27 UTC.
Position N 34°07' E 135°08'.

Length 49 m.

Type: Tanker. MMSI: 431301819.

Date/timePositionNaut miles runAvg speedWind from/ knotsBaromVisibWave heightAir tempDewpointWater temp
2018-Jul-23 09:05N 34°07' E 135°08'210.1
2018-Jul-23 08:54N 34°08' E 135°07'1010.0
2018-Jul-23 07:55N 34°18' E 135°04'28 3.3
2018-Jul-22 23:26N 34°39' E 135°26'4 0.9
2018-Jul-22 18:34N 34°35' E 135°23'1 3.2
2018-Jul-22 18:23N 34°35' E 135°23'1610.7
2018-Jul-22 16:55N 34°24' E 135°09'510.4
2018-Jul-22 16:26N 34°20' E 135°05'4 9.6
2018-Jul-22 16:00N 34°16' E 135°03'510.7
2018-Jul-22 15:29N 34°11' E 135°03'234 8.1
2018-Jul-21 10:35N 35°06' E 139°39'1 9.9
2018-Jul-21 10:26N 35°07' E 139°40'4 9.6
2018-Jul-21 09:58N 35°10' E 139°44'7 8.8
2018-Jul-21 09:11N 35°17' E 139°45'510.3
2018-Jul-21 08:42N 35°21' E 139°42'310.6
2018-Jul-21 08:27N 35°24' E 139°42'  
2018-Jul-17 03:09N 35°24' E 139°46'310.1
2018-Jul-17 02:53N 35°21' E 139°45'4 8.7
2018-Jul-17 02:24N 35°17' E 139°46'4 9.4
2018-Jul-17 02:00N 35°13' E 139°47'510.1
2018-Jul-17 01:29N 35°08' E 139°46'  
Track history (hours):
 
Tides and Currents Weather Stations Pressure Air Temp Water Temp Dewpoint Dewpoint Depression Visibility Wind Speed Wind Dir Waves Ship Positions

Fujishiro Maru

Last reported at 2018-Jul-23 09:05 UTC. Time now 2018-Jul-23 15:27 UTC.
Position N 34°07' E 135°08'.

Length 49 m.

Type: Tanker. MMSI: 431301819.

Date/timePositionNaut miles runAvg speedWind from/ knotsBaromVisibWave heightAir tempDewpointWater temp
2018-Jul-23 09:05N 34°07' E 135°08'210.1
2018-Jul-23 08:54N 34°08' E 135°07'1010.0
2018-Jul-23 07:55N 34°18' E 135°04'28 3.3
2018-Jul-22 23:26N 34°39' E 135°26'4 0.9
2018-Jul-22 18:34N 34°35' E 135°23'1 3.2
2018-Jul-22 18:23N 34°35' E 135°23'1610.7
2018-Jul-22 16:55N 34°24' E 135°09'510.4
2018-Jul-22 16:26N 34°20' E 135°05'4 9.6
2018-Jul-22 16:00N 34°16' E 135°03'510.7
2018-Jul-22 15:29N 34°11' E 135°03'234 8.1
2018-Jul-21 10:35N 35°06' E 139°39'1 9.9
2018-Jul-21 10:26N 35°07' E 139°40'4 9.6
2018-Jul-21 09:58N 35°10' E 139°44'7 8.8
2018-Jul-21 09:11N 35°17' E 139°45'510.3
2018-Jul-21 08:42N 35°21' E 139°42'310.6
2018-Jul-21 08:27N 35°24' E 139°42'  
2018-Jul-17 03:09N 35°24' E 139°46'310.1
2018-Jul-17 02:53N 35°21' E 139°45'4 8.7
2018-Jul-17 02:24N 35°17' E 139°46'4 9.4
2018-Jul-17 02:00N 35°13' E 139°47'510.1
2018-Jul-17 01:29N 35°08' E 139°46'  

Dump ship's entire track history